createdAt,value
2023-07-28T00:02:02.212Z,97829.41
2023-07-28T00:04:29.013Z,97830.19
2023-07-28T00:06:55.786Z,97818.03
2023-07-28T00:09:24.212Z,97831.56
2023-07-28T00:11:50.987Z,97844.97
2023-07-28T00:14:17.774Z,97839.59
2023-07-28T00:16:44.763Z,97851.41
2023-07-28T00:19:11.823Z,97857.53
2023-07-28T00:21:39.035Z,97866.78
2023-07-28T00:24:06.175Z,97866.03
2023-07-28T00:26:33.236Z,97864.16
2023-07-28T00:29:00.479Z,97856.06
2023-07-28T00:31:27.325Z,97855.25
2023-07-28T00:33:54.153Z,97862.25
2023-07-28T00:36:20.913Z,97863.00
2023-07-28T00:38:48.031Z,97862.75
2023-07-28T00:41:14.840Z,97864.06
2023-07-28T00:43:41.667Z,97862.94
2023-07-28T00:46:10.722Z,97854.59
2023-07-28T00:48:38.010Z,97861.97
2023-07-28T00:51:05.156Z,97854.09
2023-07-28T00:53:31.991Z,97851.91
2023-07-28T00:55:58.973Z,97843.25
2023-07-28T00:58:26.133Z,97840.06
2023-07-28T01:00:52.958Z,97831.19
2023-07-28T01:03:21.772Z,97830.69
2023-07-28T01:06:03.587Z,97828.56
2023-07-28T01:08:34.092Z,97818.03
2023-07-28T01:11:02.676Z,97815.19
2023-07-28T01:13:29.633Z,97798.13
2023-07-28T01:15:56.556Z,97793.28
2023-07-28T01:18:23.412Z,97787.34
2023-07-28T01:20:56.603Z,97777.94
2023-07-28T01:23:48.653Z,97772.13
2023-07-28T01:26:17.935Z,97758.03
2023-07-28T01:28:45.735Z,97745.13
2023-07-28T01:31:12.838Z,97733.03
2023-07-28T01:33:39.717Z,97719.50
2023-07-28T01:36:06.482Z,97719.50
2023-07-28T01:38:33.332Z,97722.69
2023-07-28T01:41:00.302Z,97721.69
2023-07-28T01:43:27.111Z,97713.06
2023-07-28T01:45:54.020Z,97709.28
2023-07-28T01:48:20.948Z,97705.31
2023-07-28T01:50:47.815Z,97696.38
2023-07-28T01:53:15.372Z,97684.56
2023-07-28T01:55:42.288Z,97685.13
2023-07-28T01:58:10.710Z,97669.19
2023-07-28T02:00:37.719Z,97650.09
2023-07-28T02:03:04.795Z,97650.09
2023-07-28T02:05:32.332Z,97631.00
2023-07-28T02:07:59.211Z,97626.66
2023-07-28T02:10:28.028Z,97621.59
2023-07-28T02:12:54.847Z,97604.31
2023-07-28T02:15:21.688Z,97591.25
2023-07-28T02:17:48.655Z,97577.22
2023-07-28T02:20:16.716Z,97574.97
2023-07-28T02:22:44.012Z,97578.22
2023-07-28T02:25:11.451Z,97569.31
2023-07-28T02:27:39.535Z,97573.38
2023-07-28T02:30:07.503Z,97569.41
2023-07-28T02:32:34.423Z,97565.94
2023-07-28T02:35:01.461Z,97560.25
2023-07-28T02:37:28.617Z,97569.84
2023-07-28T02:39:55.588Z,97568.16
2023-07-28T02:42:22.428Z,97549.72
2023-07-28T02:44:49.307Z,97547.25
2023-07-28T02:47:16.181Z,97553.56
2023-07-28T02:49:44.540Z,97535.69
2023-07-28T02:52:11.477Z,97544.31
2023-07-28T02:54:38.289Z,97549.41
2023-07-28T02:57:05.345Z,97547.56
2023-07-28T02:59:32.197Z,97542.03
2023-07-28T03:01:59.067Z,97541.97
2023-07-28T03:04:25.897Z,97536.47
2023-07-28T03:07:15.459Z,97544.34
2023-07-28T03:09:44.234Z,97541.66
2023-07-28T03:12:12.261Z,97551.88
2023-07-28T03:14:39.581Z,97542.47
2023-07-28T03:17:06.595Z,97548.13
2023-07-28T03:19:33.474Z,97546.81
2023-07-28T03:22:00.320Z,97538.72
2023-07-28T03:24:27.140Z,97542.16
2023-07-28T03:26:53.947Z,97545.91
2023-07-28T03:29:21.032Z,97545.91
2023-07-28T03:31:47.852Z,97556.19
2023-07-28T03:34:15.063Z,97551.38
2023-07-28T03:36:42.352Z,97550.25
2023-07-28T03:39:09.701Z,97554.56
2023-07-28T03:41:36.572Z,97551.38
2023-07-28T03:44:03.564Z,97553.19
2023-07-28T03:46:31.332Z,97551.31
2023-07-28T03:48:59.769Z,97549.69
2023-07-28T03:51:26.713Z,97553.22
2023-07-28T03:53:53.523Z,97559.47
2023-07-28T03:56:21.963Z,97567.81
2023-07-28T03:58:48.803Z,97559.19
2023-07-28T04:01:15.613Z,97564.91
2023-07-28T04:03:42.476Z,97553.88
2023-07-28T04:06:15.693Z,97550.91
2023-07-28T04:08:42.681Z,97545.47
2023-07-28T04:11:09.569Z,97539.56
2023-07-28T04:13:36.317Z,97532.56
2023-07-28T04:16:03.572Z,97540.91
2023-07-28T04:18:32.853Z,97532.00
2023-07-28T04:20:59.907Z,97520.16
2023-07-28T04:23:26.797Z,97516.41
2023-07-28T04:25:53.827Z,97514.75
2023-07-28T04:28:21.299Z,97508.88
2023-07-28T04:30:48.267Z,97497.88
2023-07-28T04:33:35.282Z,97489.22
2023-07-28T04:36:06.210Z,97483.63
2023-07-28T04:38:35.169Z,97493.28
2023-07-28T04:41:02.702Z,97483.56
2023-07-28T04:43:49.324Z,97476.03
2023-07-28T04:46:16.696Z,97471.78
2023-07-28T04:48:47.380Z,97466.16
2023-07-28T04:51:40.137Z,97458.91
2023-07-28T04:54:35.779Z,97450.56
2023-07-28T04:57:02.696Z,97444.34
2023-07-28T04:59:33.785Z,97451.91
2023-07-28T05:02:00.639Z,97442.22
2023-07-28T05:04:27.846Z,97449.25
2023-07-28T05:06:55.131Z,97444.13
2023-07-28T05:09:22.107Z,97438.97
2023-07-28T05:11:49.112Z,97439.03
2023-07-28T05:14:17.278Z,97435.78
2023-07-28T05:16:44.481Z,97423.94
2023-07-28T05:19:11.346Z,97420.97
2023-07-28T05:21:56.597Z,97402.91
2023-07-28T05:24:42.909Z,97396.44
2023-07-28T05:27:09.785Z,97385.41
2023-07-28T05:29:36.795Z,97369.53
2023-07-28T05:32:07.196Z,97369.22
2023-07-28T05:34:56.780Z,97356.59
2023-07-28T05:37:23.617Z,97350.13
2023-07-28T05:39:50.445Z,97344.19
2023-07-28T05:42:18.367Z,97346.66
2023-07-28T05:44:47.273Z,97341.47
2023-07-28T05:47:14.362Z,97324.25
2023-07-28T05:49:41.170Z,97318.28
2023-07-28T05:52:08.326Z,97307.50
2023-07-28T05:54:35.105Z,97301.41
2023-07-28T05:57:02.009Z,97290.63
2023-07-28T05:59:29.021Z,97285.00
2023-07-28T06:01:55.985Z,97277.72
2023-07-28T06:04:34.679Z,97274.53
2023-07-28T06:07:03.799Z,97274.00
2023-07-28T06:09:31.635Z,97264.56
2023-07-28T06:11:58.576Z,97261.34
2023-07-28T06:14:27.637Z,97270.78
2023-07-28T06:16:55.890Z,97259.69
2023-07-28T06:19:27.512Z,97258.88
2023-07-28T06:21:55.873Z,97260.25
2023-07-28T06:24:22.764Z,97262.94
2023-07-28T06:26:49.970Z,97254.31
2023-07-28T06:29:16.921Z,97254.84
2023-07-28T06:31:43.745Z,97254.91
2023-07-28T06:34:10.490Z,97253.25
2023-07-28T06:36:37.436Z,97263.50
2023-07-28T06:39:05.724Z,97265.16
2023-07-28T06:41:32.901Z,97261.41
2023-07-28T06:44:01.170Z,97261.44
2023-07-28T06:46:29.855Z,97259.28
2023-07-28T06:48:57.075Z,97266.63
2023-07-28T06:51:24.050Z,97263.34
2023-07-28T06:53:51.765Z,97263.09
2023-07-28T06:56:18.690Z,97244.25
2023-07-28T06:58:51.496Z,97230.81
2023-07-28T07:01:24.737Z,97208.94
2023-07-28T07:03:51.566Z,97208.88
2023-07-28T07:06:18.358Z,97213.53
2023-07-28T07:08:45.255Z,97209.75
2023-07-28T07:11:12.623Z,97200.31
2023-07-28T07:13:39.336Z,97201.13
2023-07-28T07:16:07.757Z,97202.19
2023-07-28T07:18:34.709Z,97174.69
2023-07-28T07:21:04.731Z,97158.47
2023-07-28T07:23:31.585Z,97144.69
2023-07-28T07:25:58.468Z,97133.56
2023-07-28T07:28:25.308Z,97124.94
2023-07-28T07:30:52.299Z,97089.78
2023-07-28T07:33:19.730Z,97067.66
2023-07-28T07:35:46.600Z,97054.72
2023-07-28T07:38:13.454Z,97039.44
2023-07-28T07:40:40.249Z,97019.47
2023-07-28T07:43:07.213Z,97018.50
2023-07-28T07:45:34.238Z,97024.91
2023-07-28T07:48:01.160Z,97022.22
2023-07-28T07:50:28.113Z,97028.53
2023-07-28T07:52:54.959Z,97028.25
2023-07-28T07:55:22.128Z,96990.03
2023-07-28T07:57:49.664Z,96964.22
2023-07-28T08:00:16.777Z,96978.63
2023-07-28T08:02:46.840Z,97039.91
2023-07-28T08:05:13.950Z,97078.22
2023-07-28T08:07:40.710Z,97127.41
2023-07-28T08:10:08.164Z,97172.06
2023-07-28T08:12:35.658Z,97189.69
2023-07-28T08:15:02.511Z,97180.25
2023-07-28T08:17:29.440Z,97179.81
2023-07-28T08:19:56.249Z,97178.97
2023-07-28T08:22:23.584Z,97183.34
2023-07-28T08:24:50.319Z,97158.66
2023-07-28T08:27:17.189Z,97167.06
2023-07-28T08:29:44.006Z,97172.34
2023-07-28T08:32:10.781Z,97147.72
2023-07-28T08:34:37.599Z,97123.25
2023-07-28T08:37:04.520Z,97106.44
2023-07-28T08:39:31.234Z,97092.59
2023-07-28T08:42:02.284Z,97075.19
2023-07-28T08:44:34.120Z,97060.25
2023-07-28T08:47:02.031Z,97052.25
2023-07-28T08:49:29.224Z,97072.53
2023-07-28T08:52:00.867Z,97129.03
2023-07-28T08:54:28.307Z,97196.66
2023-07-28T08:56:55.147Z,97243.25
2023-07-28T08:59:27.324Z,97251.97
2023-07-28T09:01:57.221Z,97279.22
2023-07-28T09:04:24.409Z,97288.28
2023-07-28T09:06:51.984Z,97337.69
2023-07-28T09:09:26.310Z,97394.38
2023-07-28T09:11:55.251Z,97445.72
2023-07-28T09:14:26.524Z,97462.28
2023-07-28T09:16:54.517Z,97474.59
2023-07-28T09:19:22.349Z,97495.66
2023-07-28T09:22:00.558Z,97505.13
2023-07-28T09:24:34.782Z,97506.06
2023-07-28T09:27:03.214Z,97564.84
2023-07-28T09:29:30.389Z,97626.66
2023-07-28T09:32:07.390Z,97631.19
2023-07-28T09:34:34.369Z,97668.50
2023-07-28T09:37:01.966Z,97855.50
2023-07-28T09:39:29.236Z,97899.38
2023-07-28T09:41:59.619Z,97888.50
2023-07-28T09:44:27.013Z,97894.91
2023-07-28T09:46:56.730Z,97891.06
2023-07-28T09:49:36.091Z,97918.66
2023-07-28T09:52:06.655Z,97926.59
2023-07-28T09:54:37.624Z,97926.78
2023-07-28T09:57:05.552Z,97915.97
2023-07-28T09:59:40.736Z,97914.16
2023-07-28T10:02:08.861Z,97924.66
2023-07-28T10:04:37.124Z,97933.63
2023-07-28T10:07:07.366Z,97953.56
2023-07-28T10:09:35.203Z,97952.56
2023-07-28T10:12:03.207Z,98484.69
2023-07-28T10:14:41.243Z,98757.94
2023-07-28T10:17:16.153Z,98790.47
2023-07-28T10:19:44.364Z,98799.75
2023-07-28T10:22:13.019Z,98807.97
2023-07-28T10:24:54.012Z,98803.16
2023-07-28T10:27:30.344Z,98830.03
2023-07-28T10:30:02.298Z,98819.59
2023-07-28T10:32:32.532Z,98809.66
2023-07-28T10:35:14.354Z,98790.50
2023-07-28T10:37:46.065Z,98789.13
2023-07-28T10:40:36.175Z,98800.03
2023-07-28T10:43:05.979Z,98766.97
2023-07-28T10:45:33.987Z,98803.47
2023-07-28T10:48:02.018Z,98799.44
2023-07-28T10:50:33.240Z,98820.47
2023-07-28T10:53:00.044Z,98820.34
2023-07-28T10:55:28.568Z,98817.25
2023-07-28T10:57:56.595Z,98834.00
2023-07-28T11:00:24.059Z,98853.09
2023-07-28T11:02:54.188Z,98861.69
2023-07-28T11:05:25.986Z,98869.94
2023-07-28T11:07:56.108Z,98874.22
2023-07-28T11:10:23.022Z,98865.50
2023-07-28T11:12:52.574Z,98870.19
2023-07-28T11:15:20.335Z,98873.16
2023-07-28T11:17:49.401Z,98865.50
2023-07-28T11:20:26.059Z,98861.59
2023-07-28T11:22:57.594Z,98860.81
2023-07-28T11:25:26.245Z,98866.34
2023-07-28T11:27:54.209Z,98847.22
2023-07-28T11:30:21.237Z,98862.03
2023-07-28T11:32:49.511Z,98846.13
2023-07-28T11:35:18.774Z,98838.78
2023-07-28T11:37:48.296Z,98826.22
2023-07-28T11:40:17.585Z,98810.16
2023-07-28T11:42:50.275Z,98822.44
2023-07-28T11:45:19.814Z,98822.16
2023-07-28T11:48:07.677Z,98834.41
2023-07-28T11:50:42.899Z,98810.13
2023-07-28T11:53:10.969Z,98824.31
2023-07-28T11:55:39.196Z,98830.59
2023-07-28T11:58:07.104Z,98841.25
2023-07-28T12:00:36.206Z,98823.25
2023-07-28T12:03:16.338Z,98831.59
2023-07-28T12:08:39.819Z,98795.06
2023-07-28T12:19:22.582Z,98770.75
2023-07-28T12:21:49.363Z,98765.38
2023-07-28T12:24:16.173Z,98771.91
2023-07-28T12:26:43.179Z,98763.66
2023-07-28T12:29:10.802Z,98716.16
2023-07-28T12:34:08.644Z,98752.47
2023-07-28T12:39:54.798Z,98721.94
2023-07-28T12:45:22.090Z,98724.28
2023-07-28T12:47:09.233Z,98734.50
2023-07-28T12:49:36.107Z,98721.44
2023-07-28T12:52:08.128Z,98704.44
2023-07-28T12:54:44.009Z,98703.50
2023-07-28T12:57:13.969Z,98679.59
2023-07-28T13:02:10.941Z,98645.94
2023-07-28T13:04:37.827Z,98647.78
2023-07-28T13:09:37.236Z,98602.44
2023-07-28T13:14:35.395Z,98549.94
2023-07-28T13:17:02.302Z,98545.47
2023-07-28T13:19:29.087Z,98499.78
2023-07-28T13:21:55.819Z,98441.84
2023-07-28T13:24:22.662Z,98364.09
2023-07-28T13:26:49.468Z,98337.28
2023-07-28T13:29:16.300Z,98242.44
2023-07-28T13:31:44.403Z,98191.13
2023-07-28T13:34:11.251Z,98153.41
2023-07-28T13:36:37.972Z,98140.94
2023-07-28T13:39:04.832Z,98110.47
2023-07-28T13:41:31.561Z,98095.53
2023-07-28T13:44:02.279Z,98082.53
2023-07-28T13:46:29.798Z,98065.69
2023-07-28T13:48:57.775Z,98059.16
2023-07-28T13:52:17.614Z,98063.97
2023-07-28T13:54:24.288Z,98053.09
2023-07-28T13:59:21.470Z,98055.63
2023-07-28T14:01:49.723Z,98057.75
2023-07-28T14:04:16.864Z,98070.28
2023-07-28T14:06:43.657Z,98053.88
2023-07-28T14:09:10.882Z,98088.63
2023-07-28T14:11:37.889Z,98128.94
2023-07-28T14:14:04.969Z,98119.91
2023-07-28T14:16:32.344Z,98123.69
2023-07-28T14:18:59.197Z,98138.22
2023-07-28T14:21:25.972Z,98197.66
2023-07-28T14:23:52.673Z,98222.69
2023-07-28T14:26:19.414Z,98216.72
2023-07-28T14:28:46.253Z,98213.75
2023-07-28T14:31:13.085Z,98221.63
2023-07-28T14:33:39.894Z,98225.72
2023-07-28T14:36:06.725Z,98264.84
2023-07-28T14:38:33.478Z,98277.63
2023-07-28T14:41:00.276Z,98280.06
2023-07-28T14:43:27.169Z,98281.97
2023-07-28T14:45:54.010Z,98306.72
2023-07-28T14:48:20.877Z,98320.28
2023-07-28T14:50:47.778Z,98305.84
2023-07-28T14:53:37.432Z,98297.97
2023-07-28T14:56:06.372Z,98247.69
2023-07-28T14:58:34.223Z,98201.78
2023-07-28T15:01:01.491Z,98234.09
2023-07-28T15:03:29.964Z,98194.63
2023-07-28T15:05:56.822Z,98114.59
2023-07-28T15:08:23.944Z,98068.91
2023-07-28T15:10:50.873Z,98032.28
2023-07-28T15:13:17.629Z,98005.13
2023-07-28T15:15:44.700Z,97977.75
2023-07-28T15:18:11.605Z,97978.56
2023-07-28T15:20:38.841Z,97967.66
2023-07-28T15:23:05.656Z,97969.56
2023-07-28T15:25:32.522Z,97985.56
2023-07-28T15:27:59.722Z,98010.00
2023-07-28T15:30:26.715Z,98004.59
2023-07-28T15:32:53.634Z,98045.50
2023-07-28T15:35:20.403Z,98034.63
2023-07-28T15:37:47.441Z,98039.81
2023-07-28T15:40:14.360Z,98041.47
2023-07-28T15:42:42.257Z,98037.63
2023-07-28T15:45:10.174Z,98051.72
2023-07-28T15:47:37.212Z,98065.31
2023-07-28T15:50:07.506Z,98061.41
2023-07-28T15:52:34.540Z,98063.00
2023-07-28T15:55:01.560Z,98061.69
2023-07-28T15:57:28.404Z,98060.59
2023-07-28T15:59:55.184Z,98061.94
2023-07-28T16:02:21.972Z,98050.00
2023-07-28T16:04:49.425Z,98036.47
2023-07-28T16:07:16.344Z,98012.34
2023-07-28T16:09:45.054Z,98006.97
2023-07-28T16:12:12.094Z,98007.72
2023-07-28T16:14:39.389Z,98002.03
2023-07-28T16:17:06.903Z,98004.47
2023-07-28T16:19:33.820Z,98001.25
2023-07-28T16:22:00.665Z,97997.97
2023-07-28T16:24:27.611Z,97997.50
2023-07-28T16:26:54.898Z,97996.94
2023-07-28T16:29:21.748Z,97986.59
2023-07-28T16:31:49.146Z,97986.56
2023-07-28T16:34:16.036Z,97966.22
2023-07-28T16:36:42.927Z,97948.56
2023-07-28T16:39:10.401Z,97949.34
2023-07-28T16:41:37.534Z,97935.56
2023-07-28T16:44:04.595Z,97946.91
2023-07-28T16:46:31.445Z,97929.56
2023-07-28T16:48:58.185Z,97896.22
2023-07-28T16:51:24.988Z,97869.94
2023-07-28T16:53:52.367Z,97870.16
2023-07-28T16:56:19.268Z,97784.88
2023-07-28T16:58:46.076Z,97725.28
2023-07-28T17:01:12.901Z,97685.75
2023-07-28T17:03:39.693Z,97657.03
2023-07-28T17:06:06.835Z,97604.75
2023-07-28T17:08:33.598Z,97613.44
2023-07-28T17:11:00.292Z,97626.16
2023-07-28T17:13:27.103Z,97620.78
2023-07-28T17:15:53.840Z,97611.81
2023-07-28T17:18:20.634Z,97595.56
2023-07-28T17:20:47.378Z,97576.03
2023-07-28T17:23:14.227Z,97569.84
2023-07-28T17:25:41.121Z,97544.41
2023-07-28T17:28:08.019Z,97535.75
2023-07-28T17:30:34.802Z,97490.56
2023-07-28T17:33:01.701Z,97461.28
2023-07-28T17:35:28.459Z,97460.25
2023-07-28T17:37:56.055Z,97429.91
2023-07-28T17:40:22.806Z,97411.84
2023-07-28T17:42:49.618Z,97401.56
2023-07-28T17:45:16.506Z,97277.91
2023-07-28T17:47:43.421Z,97077.50
2023-07-28T17:50:10.800Z,97072.63
2023-07-28T17:52:37.642Z,97083.44
2023-07-28T17:55:04.789Z,97090.91
2023-07-28T17:57:31.657Z,97092.59
2023-07-28T17:59:58.588Z,97094.09
2023-07-28T18:02:25.401Z,97104.91
2023-07-28T18:04:52.221Z,97117.38
2023-07-28T18:07:18.982Z,97123.75
2023-07-28T18:09:45.696Z,97142.72
2023-07-28T18:12:12.493Z,97155.72
2023-07-28T18:14:39.226Z,97157.38
2023-07-28T18:17:06.408Z,97173.97
2023-07-28T18:19:33.263Z,97177.16
2023-07-28T18:22:00.137Z,97198.53
2023-07-28T18:24:26.981Z,97207.19
2023-07-28T18:26:53.874Z,97212.88
2023-07-28T18:29:20.645Z,97228.84
2023-07-28T18:31:47.565Z,97236.22
2023-07-28T18:34:14.621Z,97248.69
2023-07-28T18:36:41.452Z,97251.66
2023-07-28T18:39:08.306Z,97257.28
2023-07-28T18:41:35.268Z,97273.25
2023-07-28T18:44:02.455Z,97287.34
2023-07-28T18:46:29.252Z,97290.06
2023-07-28T18:48:56.080Z,97304.97
2023-07-28T18:51:23.258Z,97307.44
2023-07-28T18:53:52.166Z,97306.38
2023-07-28T18:56:19.028Z,97313.38
2023-07-28T18:58:45.886Z,97310.97
2023-07-28T19:01:13.123Z,97321.03
2023-07-28T19:03:40.608Z,97308.56
2023-07-28T19:06:07.636Z,97316.44
2023-07-28T19:08:34.515Z,97332.66
2023-07-28T19:11:01.303Z,97317.28
2023-07-28T19:13:28.382Z,97319.69
2023-07-28T19:15:55.336Z,97314.84
2023-07-28T19:18:22.523Z,97315.91
2023-07-28T19:20:49.414Z,97317.53
2023-07-28T19:23:16.289Z,97312.94
2023-07-28T19:25:43.048Z,97316.16
2023-07-28T19:28:10.061Z,97304.00
2023-07-28T19:30:36.998Z,97308.06
2023-07-28T19:33:03.968Z,97314.03
2023-07-28T19:35:30.784Z,97303.50
2023-07-28T19:37:57.587Z,97316.75
2023-07-28T19:40:27.306Z,97317.28
2023-07-28T19:42:56.280Z,97321.84
2023-07-28T19:45:23.585Z,97324.84
2023-07-28T19:47:51.258Z,97321.59
2023-07-28T19:50:34.528Z,97328.88
2023-07-28T19:53:05.347Z,97334.28
2023-07-28T19:55:32.791Z,97329.13
2023-07-28T19:58:02.456Z,97329.69
2023-07-28T20:00:29.514Z,97333.97
2023-07-28T20:02:56.590Z,97348.34
2023-07-28T20:05:23.407Z,97350.22
2023-07-28T20:07:50.176Z,97343.47
2023-07-28T20:10:16.993Z,97357.28
2023-07-28T20:12:43.860Z,97357.81
2023-07-28T20:15:11.121Z,97368.63
2023-07-28T20:17:37.953Z,97372.41
2023-07-28T20:20:05.327Z,97370.25
2023-07-28T20:22:32.128Z,97383.78
2023-07-28T20:24:58.863Z,97390.25
2023-07-28T20:27:26.388Z,97397.00
2023-07-28T20:29:53.151Z,97407.56
2023-07-28T20:32:19.920Z,97394.03
2023-07-28T20:34:46.732Z,97402.69
2023-07-28T20:37:13.595Z,97386.19
2023-07-28T20:39:40.444Z,97391.31
2023-07-28T20:42:07.284Z,97385.94
2023-07-28T20:44:34.190Z,97389.16
2023-07-28T20:47:00.971Z,97388.34
2023-07-28T20:49:27.728Z,97382.66
2023-07-28T20:51:54.500Z,97378.88
2023-07-28T20:54:21.325Z,97385.88
2023-07-28T20:56:48.041Z,97379.94
2023-07-28T20:59:14.872Z,97395.06
2023-07-28T21:01:41.629Z,97393.97
2023-07-28T21:04:08.351Z,97400.44
2023-07-28T21:06:36.913Z,97399.09
2023-07-28T21:09:05.012Z,97400.16
2023-07-28T21:11:31.932Z,97406.41
2023-07-28T21:13:58.636Z,97406.41
2023-07-28T21:16:25.615Z,97406.94
2023-07-28T21:18:52.499Z,97407.50
2023-07-28T21:21:19.312Z,97398.56
2023-07-28T21:23:46.073Z,97396.41
2023-07-28T21:26:13.903Z,97396.13
2023-07-28T21:28:40.747Z,97399.38
2023-07-28T21:31:07.532Z,97415.03
2023-07-28T21:33:34.303Z,97436.66
2023-07-28T21:36:01.184Z,97449.63
2023-07-28T21:38:28.650Z,97469.06
2023-07-28T21:40:55.483Z,97473.41
2023-07-28T21:43:22.344Z,97489.84
2023-07-28T21:45:49.348Z,97487.72
2023-07-28T21:48:16.206Z,97497.19
2023-07-28T21:50:42.953Z,97507.94
2023-07-28T21:53:27.433Z,97517.59
2023-07-28T21:55:57.336Z,97527.59
2023-07-28T21:58:24.172Z,97508.34
2023-07-28T22:00:50.964Z,97485.88
2023-07-28T22:03:17.849Z,97434.53
2023-07-28T22:05:45.620Z,97397.13
2023-07-28T22:08:13.844Z,97374.69
2023-07-28T22:10:42.368Z,97356.38
2023-07-28T22:13:11.891Z,97334.50
2023-07-28T22:15:39.243Z,97312.09
2023-07-28T22:18:06.107Z,97302.38
2023-07-28T22:20:34.491Z,97289.97
2023-07-28T22:23:01.410Z,97278.63
2023-07-28T22:25:29.112Z,97275.38
2023-07-28T22:27:57.967Z,97269.47
2023-07-28T22:30:25.204Z,97274.81
2023-07-28T22:32:54.964Z,97282.38
2023-07-28T22:35:21.884Z,97286.97
2023-07-28T22:37:48.637Z,97296.38
2023-07-28T22:40:15.417Z,97294.47
2023-07-28T22:42:44.612Z,97296.91
2023-07-28T22:45:11.880Z,97300.13
2023-07-28T22:47:38.628Z,97303.94
2023-07-28T22:50:07.412Z,97300.94
2023-07-28T22:52:34.147Z,97305.53
2023-07-28T22:57:32.912Z,97305.34
2023-07-28T22:59:59.678Z,97308.88
2023-07-28T23:02:26.918Z,97307.72
2023-07-28T23:04:53.780Z,97309.31
2023-07-28T23:07:22.746Z,97306.59
2023-07-28T23:09:49.600Z,97291.75
2023-07-28T23:12:16.420Z,97272.06
2023-07-28T23:14:43.173Z,97264.47
2023-07-28T23:17:10.010Z,97248.28
2023-07-28T23:19:36.787Z,97220.25
2023-07-28T23:22:04.144Z,97197.63
2023-07-28T23:24:31.984Z,97192.75
2023-07-28T23:26:58.839Z,97184.19
2023-07-28T23:29:25.619Z,97183.63
2023-07-28T23:31:55.604Z,97180.44
2023-07-28T23:34:22.490Z,97179.09
2023-07-28T23:36:49.374Z,97181.25
2023-07-28T23:39:18.824Z,97183.97
2023-07-28T23:41:48.600Z,97186.66
2023-07-28T23:44:15.340Z,97183.16
2023-07-28T23:46:42.213Z,97198.78
2023-07-28T23:49:09.192Z,97203.88
2023-07-28T23:51:35.980Z,97207.38
2023-07-28T23:54:02.813Z,97212.75
2023-07-28T23:56:29.515Z,97193.59
2023-07-28T23:58:56.369Z,97191.97
